Time;durP1;ratioP1;P1;durP2;ratioP2;P2;SDS_P1;SDS_P2;PMS_P1;PMS_P2;Temp;Humidity;BMP_temperature;BMP_pressure;BME280_temperature;BME280_humidity;BME280_pressure;Samples;Min_cycle;Max_cycle;Signal;HPM_P1;HPM_P2
2021/07/29 00:00:35;;;;;;;8.05;2.38;;;19.60;93.10;;;;;;5032657;28;20040;-75
2021/07/29 00:03:01;;;;;;;3.40;2.30;;;19.50;92.70;;;;;;5033982;28;20044;-73
2021/07/29 00:05:28;;;;;;;9.18;2.65;;;19.50;92.40;;;;;;5033575;28;20542;-72
2021/07/29 00:07:54;;;;;;;5.03;2.17;;;19.50;92.30;;;;;;5032692;28;20125;-72
2021/07/29 00:10:23;;;;;;;4.60;2.55;;;19.50;92.40;;;;;;5033638;28;20045;-72
2021/07/29 00:12:48;;;;;;;5.97;2.28;;;19.50;92.60;;;;;;5033773;28;20029;-74
2021/07/29 00:15:16;;;;;;;3.83;2.13;;;19.40;92.40;;;;;;5032525;28;20032;-71
2021/07/29 00:20:16;;;;;;;3.67;1.92;;;19.40;92.40;;;;;;5033433;28;20349;-72
2021/07/29 00:22:42;;;;;;;3.28;2.25;;;19.40;92.10;;;;;;5033224;28;20147;-73
2021/07/29 00:25:12;;;;;;;4.97;2.17;;;19.40;92.40;;;;;;5032212;28;20120;-73
2021/07/29 00:27:42;;;;;;;8.25;2.75;;;19.40;92.10;;;;;;5033400;28;20108;-72
2021/07/29 00:30:10;;;;;;;8.13;2.55;;;19.40;91.90;;;;;;5033463;28;20320;-74
2021/07/29 00:32:36;;;;;;;2.70;2.28;;;19.40;92.10;;;;;;5033555;28;20022;-73
2021/07/29 00:35:06;;;;;;;5.38;2.30;;;19.50;92.20;;;;;;5033030;28;20049;-73
2021/07/29 00:37:38;;;;;;;3.53;2.13;;;19.40;92.10;;;;;;5032894;28;20522;-73
2021/07/29 00:40:04;;;;;;;3.58;2.35;;;19.40;92.10;;;;;;5032935;28;20478;-73
2021/07/29 00:42:30;;;;;;;5.22;2.10;;;19.40;92.20;;;;;;5031926;28;20037;-73
2021/07/29 00:44:56;;;;;;;4.97;1.92;;;19.40;91.80;;;;;;5033456;28;20413;-72
2021/07/29 00:47:22;;;;;;;5.10;2.10;;;19.40;91.90;;;;;;5033058;28;20041;-74
2021/07/29 00:49:48;;;;;;;6.45;2.38;;;19.40;91.80;;;;;;5032965;28;20040;-73
2021/07/29 00:52:15;;;;;;;3.53;2.28;;;19.40;92.30;;;;;;5033034;28;20168;-73
2021/07/29 00:54:42;;;;;;;6.55;2.28;;;19.40;91.80;;;;;;5032809;28;20027;-73
2021/07/29 00:57:09;;;;;;;8.15;2.75;;;19.40;92.00;;;;;;5031961;28;20014;-72
2021/07/29 00:59:36;;;;;;;4.30;2.13;;;19.40;91.70;;;;;;5032997;28;20356;-73
2021/07/29 01:02:02;;;;;;;3.00;1.80;;;19.40;91.90;;;;;;5032484;28;20168;-73
2021/07/29 01:04:28;;;;;;;3.95;2.17;;;19.40;91.90;;;;;;5032475;28;20111;-72
2021/07/29 01:06:55;;;;;;;4.28;1.95;;;19.40;92.10;;;;;;5032609;28;20080;-73
2021/07/29 01:09:20;;;;;;;5.47;2.25;;;19.40;92.10;;;;;;5032153;28;20037;-73
2021/07/29 01:11:46;;;;;;;3.65;2.60;;;19.40;91.90;;;;;;5031936;28;20036;-72
2021/07/29 01:14:12;;;;;;;4.97;2.05;;;19.40;92.10;;;;;;5032169;28;20418;-72
2021/07/29 01:16:38;;;;;;;3.55;2.00;;;19.30;92.00;;;;;;5032348;28;20029;-73
2021/07/29 01:19:05;;;;;;;4.22;2.30;;;19.30;92.70;;;;;;5032251;28;20473;-72
2021/07/29 01:21:32;;;;;;;4.57;1.98;;;19.40;92.90;;;;;;5032015;28;20064;-73
2021/07/29 01:23:58;;;;;;;4.15;2.10;;;19.40;92.70;;;;;;5032589;28;20029;-73
2021/07/29 01:26:27;;;;;;;4.80;2.45;;;19.40;92.40;;;;;;5032111;28;20037;-73
2021/07/29 01:28:56;;;;;;;5.45;2.28;;;19.40;92.30;;;;;;5032100;28;20034;-72
2021/07/29 01:31:21;;;;;;;5.53;2.50;;;19.40;92.60;;;;;;5030890;28;20025;-72
2021/07/29 01:33:47;;;;;;;5.15;2.63;;;19.30;92.50;;;;;;5032181;28;20044;-73
2021/07/29 01:36:13;;;;;;;7.43;2.50;;;19.40;92.70;;;;;;5042413;28;20474;-72
2021/07/29 01:38:38;;;;;;;6.30;2.72;;;19.40;93.10;;;;;;5052376;28;20017;-72
2021/07/29 01:41:04;;;;;;;4.35;2.47;;;19.30;93.00;;;;;;5050678;28;20459;-72
2021/07/29 01:43:31;;;;;;;4.47;2.38;;;19.30;93.40;;;;;;5051534;28;20061;-72
2021/07/29 01:45:58;;;;;;;6.80;2.70;;;19.30;93.60;;;;;;5051712;28;20032;-72
2021/07/29 01:48:26;;;;;;;6.50;2.20;;;19.30;93.60;;;;;;5051577;28;20017;-72
2021/07/29 01:50:53;;;;;;;7.03;2.50;;;19.30;93.20;;;;;;5051987;28;20013;-73
2021/07/29 01:53:19;;;;;;;5.43;2.33;;;19.10;93.10;;;;;;5051610;28;20029;-73
2021/07/29 01:55:48;;;;;;;4.50;2.60;;;19.10;93.40;;;;;;5051886;28;20025;-73
2021/07/29 01:58:15;;;;;;;2.83;2.13;;;19.10;93.50;;;;;;5051644;28;20036;-72
2021/07/29 02:00:43;;;;;;;5.30;2.30;;;19.10;93.50;;;;;;5051916;28;20041;-73
2021/07/29 02:03:09;;;;;;;6.90;2.50;;;18.90;93.80;;;;;;5051303;28;20546;-72
2021/07/29 02:05:34;;;;;;;2.53;2.05;;;18.90;93.30;;;;;;5052023;28;20145;-72
2021/07/29 02:08:01;;;;;;;5.07;2.20;;;18.80;93.30;;;;;;5051524;28;20025;-72
2021/07/29 02:10:27;;;;;;;6.65;1.98;;;18.80;93.40;;;;;;5051404;28;20057;-72
2021/07/29 02:12:54;;;;;;;3.83;1.90;;;18.80;93.60;;;;;;5051478;28;20025;-73
2021/07/29 02:15:20;;;;;;;4.55;2.03;;;18.70;93.80;;;;;;5051286;28;20108;-72
2021/07/29 02:17:46;;;;;;;3.60;2.15;;;18.60;93.90;;;;;;5051499;28;20071;-73
2021/07/29 02:20:13;;;;;;;4.72;2.10;;;18.60;94.00;;;;;;5051110;28;20041;-72
2021/07/29 02:22:39;;;;;;;4.07;2.33;;;18.70;94.10;;;;;;5049267;28;20056;-72
2021/07/29 02:25:05;;;;;;;5.50;2.30;;;18.60;94.40;;;;;;5051030;28;20044;-73
2021/07/29 02:27:31;;;;;;;4.85;2.40;;;18.60;94.60;;;;;;5051106;28;20348;-72
2021/07/29 02:29:57;;;;;;;5.03;2.40;;;18.50;95.10;;;;;;5050315;28;20051;-71
2021/07/29 02:32:24;;;;;;;3.60;2.33;;;18.40;95.00;;;;;;5051055;28;20516;-71
2021/07/29 02:34:52;;;;;;;4.93;2.55;;;18.40;94.90;;;;;;5049941;28;20423;-73
2021/07/29 02:37:18;;;;;;;;;;;18.30;95.20;;;;;;5051546;28;20281;-72
2021/07/29 02:39:43;;;;;;;3.22;1.67;;;18.30;95.40;;;;;;5050972;28;19967;-71
2021/07/29 02:42:09;;;;;;;5.15;2.40;;;18.30;95.50;;;;;;5050873;28;20040;-72
2021/07/29 02:44:35;;;;;;;6.00;2.63;;;18.30;95.90;;;;;;5051217;28;20033;-73
2021/07/29 02:47:01;;;;;;;3.58;2.15;;;18.20;96.00;;;;;;5051041;28;20454;-73
2021/07/29 02:49:27;;;;;;;7.10;2.60;;;18.20;95.90;;;;;;5050914;28;20033;-72
2021/07/29 02:51:52;;;;;;;5.85;1.88;;;18.20;95.80;;;;;;5050815;28;20080;-71
2021/07/29 02:54:18;;;;;;;4.45;2.38;;;18.20;96.00;;;;;;5050656;28;20034;-72
2021/07/29 02:56:44;;;;;;;6.95;2.70;;;18.10;96.00;;;;;;5051125;28;20075;-72
2021/07/29 02:59:10;;;;;;;5.50;2.63;;;18.10;96.00;;;;;;5051058;28;20029;-72
2021/07/29 03:01:36;;;;;;;5.43;2.50;;;18.10;96.30;;;;;;5050411;28;20041;-73
2021/07/29 03:04:01;;;;;;;5.28;2.55;;;18.00;96.50;;;;;;5051146;28;20124;-74
2021/07/29 03:06:27;;;;;;;7.30;2.20;;;18.00;96.40;;;;;;5050603;28;20436;-74
2021/07/29 03:08:53;;;;;;;5.82;2.30;;;18.10;96.30;;;;;;5051121;28;20120;-72
2021/07/29 03:11:19;;;;;;;5.80;2.72;;;18.10;96.40;;;;;;5050610;28;20090;-71
2021/07/29 03:13:45;;;;;;;3.92;2.17;;;18.10;96.70;;;;;;5050523;28;20041;-73
2021/07/29 03:16:11;;;;;;;4.22;2.60;;;18.00;96.80;;;;;;5050497;28;20348;-73
2021/07/29 03:18:36;;;;;;;5.70;2.33;;;18.00;97.00;;;;;;5050465;28;20025;-72
2021/07/29 03:21:05;;;;;;;4.78;2.85;;;17.90;97.10;;;;;;5050729;28;20522;-72
2021/07/29 03:23:30;;;;;;;;;;;17.90;97.10;;;;;;5050813;28;20481;-72
2021/07/29 03:25:56;;;;;;;4.60;2.47;;;17.90;97.00;;;;;;5050422;28;19909;-72
2021/07/29 03:28:22;;;;;;;5.35;2.63;;;17.90;97.20;;;;;;5050509;28;20041;-74
2021/07/29 03:30:47;;;;;;;3.90;2.55;;;17.90;97.20;;;;;;5050369;28;20533;-72
2021/07/29 03:33:13;;;;;;;3.75;2.47;;;17.90;97.20;;;;;;5052019;28;20029;-74
2021/07/29 03:35:40;;;;;;;4.35;2.38;;;17.80;97.30;;;;;;5053734;28;20017;-72
2021/07/29 03:38:09;;;;;;;6.47;2.78;;;17.80;97.30;;;;;;5054319;28;20032;-72
2021/07/29 03:40:35;;;;;;;5.63;3.10;;;17.80;97.40;;;;;;5054198;28;20132;-72
2021/07/29 03:43:02;;;;;;;5.70;2.58;;;17.70;97.50;;;;;;5053251;28;20512;-74
2021/07/29 03:45:32;;;;;;;7.03;2.83;;;17.60;97.50;;;;;;5053809;28;20037;-73
2021/07/29 03:47:58;;;;;;;10.23;3.20;;;17.60;97.50;;;;;;5054435;28;20025;-73
2021/07/29 03:50:24;;;;;;;5.13;2.80;;;17.70;97.30;;;;;;5054065;28;20369;-73
2021/07/29 03:52:50;;;;;;;7.28;2.75;;;17.80;97.40;;;;;;5054060;28;20037;-73
2021/07/29 03:55:15;;;;;;;4.85;2.72;;;17.80;97.20;;;;;;5053797;28;20516;-73
2021/07/29 03:57:41;;;;;;;5.68;2.72;;;17.80;97.20;;;;;;5053853;28;20033;-72
2021/07/29 04:00:07;;;;;;;4.13;2.85;;;17.80;97.10;;;;;;5053198;28;20029;-72
2021/07/29 04:02:34;;;;;;;4.80;2.22;;;17.80;97.10;;;;;;5052709;28;20036;-73
2021/07/29 04:05:00;;;;;;;5.18;2.67;;;17.80;97.10;;;;;;5053736;28;20076;-72
2021/07/29 04:07:25;;;;;;;5.15;2.53;;;17.90;97.10;;;;;;5053533;28;20494;-74
2021/07/29 04:09:51;;;;;;;5.38;2.30;;;17.80;97.10;;;;;;5053682;28;20045;-72
2021/07/29 04:12:17;;;;;;;7.22;2.72;;;17.90;97.00;;;;;;5053308;28;20052;-73
2021/07/29 04:14:43;;;;;;;5.68;2.38;;;17.80;96.90;;;;;;5053899;28;20060;-72
2021/07/29 04:17:09;;;;;;;4.90;2.63;;;17.80;96.80;;;;;;5052502;28;20458;-72
2021/07/29 04:19:35;;;;;;;5.63;2.25;;;17.90;96.80;;;;;;5052405;28;20069;-72
2021/07/29 04:22:06;;;;;;;4.85;2.50;;;17.80;96.60;;;;;;5053201;28;20048;-73
2021/07/29 04:24:32;;;;;;;3.33;2.25;;;17.80;96.70;;;;;;5053491;28;20064;-72
2021/07/29 04:26:59;;;;;;;5.88;2.78;;;17.90;96.50;;;;;;5053763;28;20028;-73
2021/07/29 04:29:26;;;;;;;6.20;2.30;;;17.90;96.40;;;;;;5053319;28;20044;-71
2021/07/29 04:31:52;;;;;;;4.88;2.40;;;17.90;96.40;;;;;;5053065;28;20493;-73
2021/07/29 04:34:18;;;;;;;4.43;2.67;;;17.90;96.40;;;;;;5052882;28;20037;-73
2021/07/29 04:36:44;;;;;;;5.70;2.33;;;17.90;96.50;;;;;;5052902;28;20037;-74
2021/07/29 04:39:10;;;;;;;4.20;2.30;;;17.90;96.70;;;;;;5053141;28;20103;-74
2021/07/29 04:41:40;;;;;;;5.22;3.10;;;17.90;96.80;;;;;;5053296;28;20060;-72
2021/07/29 04:44:07;;;;;;;6.35;3.05;;;17.80;97.00;;;;;;5051180;28;20123;-73
2021/07/29 04:46:35;;;;;;;5.00;2.78;;;17.90;96.90;;;;;;5052753;28;20112;-72
2021/07/29 04:49:01;;;;;;;3.30;2.78;;;17.90;96.90;;;;;;5052814;28;20040;-73
2021/07/29 04:51:26;;;;;;;3.90;2.90;;;18.00;97.20;;;;;;5052691;28;20033;-72
2021/07/29 04:53:52;;;;;;;7.22;3.20;;;18.00;97.00;;;;;;5053406;28;20032;-72
2021/07/29 04:56:18;;;;;;;9.50;3.22;;;18.00;97.00;;;;;;5052785;28;20033;-73
2021/07/29 04:58:43;;;;;;;6.88;2.22;;;18.00;97.00;;;;;;5051764;28;20052;-72
2021/07/29 05:01:09;;;;;;;5.45;2.75;;;18.00;97.10;;;;;;5052579;28;20132;-72
2021/07/29 05:03:35;;;;;;;6.05;2.55;;;18.00;97.00;;;;;;5052391;28;20037;-72
2021/07/29 05:06:01;;;;;;;6.10;2.90;;;18.00;97.20;;;;;;5052829;28;20036;-73
2021/07/29 05:08:27;;;;;;;5.90;2.40;;;17.90;97.20;;;;;;5051448;28;20075;-73
2021/07/29 05:10:52;;;;;;;10.27;2.60;;;18.00;97.30;;;;;;5052488;28;20033;-73
2021/07/29 05:13:18;;;;;;;3.75;2.40;;;18.00;97.10;;;;;;5052956;28;20049;-74
2021/07/29 05:15:43;;;;;;;3.90;2.33;;;18.00;97.00;;;;;;5052474;28;20048;-72
2021/07/29 05:18:09;;;;;;;6.10;2.60;;;18.00;96.80;;;;;;5052312;28;20025;-74
2021/07/29 05:20:35;;;;;;;3.50;2.38;;;18.00;96.70;;;;;;5052549;28;20391;-74
2021/07/29 05:23:00;;;;;;;4.07;2.80;;;17.90;96.80;;;;;;5051782;28;20047;-72
2021/07/29 05:25:26;;;;;;;6.95;2.60;;;18.00;96.80;;;;;;5052068;28;20532;-72
2021/07/29 05:27:52;;;;;;;5.38;2.30;;;18.00;96.80;;;;;;5052111;28;20458;-73
2021/07/29 05:30:19;;;;;;;5.25;2.50;;;18.00;96.80;;;;;;5051955;28;20472;-73
2021/07/29 05:32:45;;;;;;;5.38;2.60;;;18.00;96.70;;;;;;5051299;28;20025;-71
2021/07/29 05:35:11;;;;;;;5.47;2.42;;;18.00;96.70;;;;;;5052060;28;20118;-72
2021/07/29 05:37:37;;;;;;;5.40;2.20;;;18.10;96.50;;;;;;5051914;28;20033;-73
2021/07/29 05:40:05;;;;;;;8.07;2.58;;;18.10;96.40;;;;;;5051650;28;20025;-72
2021/07/29 05:42:32;;;;;;;5.13;2.25;;;18.10;96.40;;;;;;5051573;28;20516;-72
2021/07/29 05:44:58;;;;;;;6.97;2.33;;;18.00;96.10;;;;;;5051862;28;20029;-72
2021/07/29 05:47:23;;;;;;;4.47;2.13;;;18.10;96.00;;;;;;5051446;28;20036;-72
2021/07/29 05:49:49;;;;;;;5.53;2.28;;;18.10;95.80;;;;;;5050244;28;20439;-74
2021/07/29 05:52:15;;;;;;;3.13;2.25;;;18.20;95.90;;;;;;5050299;28;20302;-72
2021/07/29 05:54:40;;;;;;;7.03;2.30;;;18.20;95.70;;;;;;5051196;28;20037;-75
2021/07/29 05:57:06;;;;;;;3.92;1.98;;;18.20;95.80;;;;;;5051684;28;20021;-72
2021/07/29 05:59:31;;;;;;;7.43;2.40;;;18.30;95.70;;;;;;5050392;28;20055;-72
2021/07/29 06:01:57;;;;;;;9.80;2.17;;;18.30;95.60;;;;;;5051245;28;20037;-75
2021/07/29 06:04:22;;;;;;;3.78;1.92;;;18.20;95.50;;;;;;5051316;28;20537;-73
2021/07/29 06:06:48;;;;;;;7.50;2.28;;;18.30;95.40;;;;;;5051238;28;20039;-72
2021/07/29 06:09:13;;;;;;;5.07;2.00;;;18.30;95.10;;;;;;5051215;28;20053;-72
2021/07/29 06:11:39;;;;;;;2.88;1.70;;;18.30;95.20;;;;;;5051473;28;20091;-72
2021/07/29 06:14:04;;;;;;;7.63;2.45;;;18.30;94.90;;;;;;5051000;28;20041;-72
2021/07/29 06:16:30;;;;;;;6.97;2.30;;;18.40;94.90;;;;;;5049729;28;20056;-72
2021/07/29 06:21:40;;;;;;;7.60;2.13;;;18.30;94.40;;;;;;5050867;28;20060;-72
2021/07/29 06:24:06;;;;;;;14.65;2.60;;;18.30;94.50;;;;;;5051449;28;20041;-73
2021/07/29 06:26:32;;;;;;;5.32;2.17;;;18.40;94.60;;;;;;5050933;28;20041;-72
2021/07/29 06:28:59;;;;;;;4.05;1.70;;;18.40;94.40;;;;;;5050632;28;20041;-72
2021/07/29 06:31:25;;;;;;;7.28;2.28;;;18.50;94.60;;;;;;5049793;28;20033;-73
2021/07/29 06:33:50;;;;;;;2.83;1.73;;;18.40;94.40;;;;;;5049631;28;20540;-72
2021/07/29 06:36:16;;;;;;;3.63;1.92;;;18.50;94.20;;;;;;5050847;28;20035;-74
2021/07/29 06:38:41;;;;;;;5.63;1.63;;;18.50;94.40;;;;;;5050207;28;20071;-72
2021/07/29 06:41:08;;;;;;;5.22;2.10;;;18.50;94.40;;;;;;5051009;28;20121;-74
2021/07/29 06:43:34;;;;;;;9.55;2.05;;;18.50;94.50;;;;;;5049532;28;20036;-72
2021/07/29 06:46:04;;;;;;;5.80;1.63;;;18.50;94.30;;;;;;5049683;28;20029;-72
2021/07/29 06:48:30;;;;;;;6.45;2.05;;;18.50;94.30;;;;;;5050585;28;20138;-72
2021/07/29 06:50:56;;;;;;;5.55;2.13;;;18.50;94.20;;;;;;5050868;28;20025;-71
2021/07/29 06:53:21;;;;;;;10.35;2.08;;;18.60;94.10;;;;;;5050506;28;20029;-73
2021/07/29 06:55:47;;;;;;;6.97;2.08;;;18.60;93.80;;;;;;5050520;28;20021;-73
2021/07/29 06:58:12;;;;;;;8.45;2.67;;;18.60;93.70;;;;;;5050822;28;20017;-72
2021/07/29 07:00:38;;;;;;;5.60;1.85;;;18.70;93.60;;;;;;5050535;28;20025;-73
2021/07/29 07:03:03;;;;;;;6.60;2.00;;;18.70;93.50;;;;;;5050958;28;20128;-72
2021/07/29 07:05:29;;;;;;;5.60;2.08;;;18.80;93.30;;;;;;5050361;28;20033;-72
2021/07/29 07:07:54;;;;;;;2.53;1.55;;;18.80;93.30;;;;;;5051622;28;20060;-73
2021/07/29 07:10:20;;;;;;;4.93;1.88;;;18.90;93.10;;;;;;5054434;28;20029;-73
2021/07/29 07:12:50;;;;;;;4.65;1.60;;;19.00;93.20;;;;;;5053490;28;20112;-72
2021/07/29 07:15:16;;;;;;;5.20;1.88;;;19.10;92.90;;;;;;5054598;28;20671;-73
2021/07/29 07:17:41;;;;;;;5.50;1.80;;;19.00;92.70;;;;;;5054905;28;20025;-73
2021/07/29 07:20:07;;;;;;;5.85;1.58;;;19.10;92.60;;;;;;5054381;28;20356;-72
2021/07/29 07:22:35;;;;;;;10.65;2.05;;;19.20;92.50;;;;;;5054132;28;20045;-72
2021/07/29 07:25:00;;;;;;;4.95;1.50;;;19.20;92.20;;;;;;5054359;28;20350;-71
2021/07/29 07:27:26;;;;;;;4.03;1.83;;;19.20;92.00;;;;;;5054283;28;20025;-72
2021/07/29 07:29:51;;;;;;;5.40;1.63;;;19.30;91.80;;;;;;5054494;28;20025;-73
2021/07/29 07:32:17;;;;;;;6.93;1.77;;;19.30;91.90;;;;;;5053976;28;20319;-73
2021/07/29 07:34:43;;;;;;;6.63;1.85;;;19.40;91.70;;;;;;5054104;28;20418;-72
2021/07/29 07:37:08;;;;;;;9.60;1.88;;;19.40;91.40;;;;;;5053871;28;20037;-72
2021/07/29 07:39:34;;;;;;;4.70;1.77;;;19.40;91.20;;;;;;5054023;28;20033;-72
2021/07/29 07:42:00;;;;;;;12.13;2.00;;;19.50;91.20;;;;;;5053173;28;20021;-73
2021/07/29 07:44:25;;;;;;;4.63;1.77;;;19.60;91.00;;;;;;5053818;28;20099;-73
2021/07/29 07:46:51;;;;;;;8.57;1.70;;;19.70;90.80;;;;;;5053810;28;20029;-73
2021/07/29 07:49:17;;;;;;;6.53;2.20;;;19.70;90.80;;;;;;5053705;28;20080;-72
2021/07/29 07:51:42;;;;;;;7.70;1.50;;;19.90;90.50;;;;;;5053676;28;20529;-72
2021/07/29 07:54:08;;;;;;;6.53;1.92;;;20.10;90.00;;;;;;5053528;28;20025;-72
2021/07/29 07:56:34;;;;;;;3.55;1.88;;;20.00;89.70;;;;;;5053123;28;20020;-73
2021/07/29 07:59:00;;;;;;;5.25;1.85;;;20.20;90.10;;;;;;5053742;28;20036;-72
2021/07/29 08:01:26;;;;;;;11.48;2.28;;;20.20;89.60;;;;;;5053497;28;20029;-72
2021/07/29 08:03:51;;;;;;;8.00;2.15;;;20.30;89.80;;;;;;5053226;28;20041;-72
2021/07/29 08:06:17;;;;;;;4.70;1.77;;;20.40;89.20;;;;;;5053294;28;20096;-72
2021/07/29 08:08:42;;;;;;;5.93;2.25;;;20.60;88.20;;;;;;5053835;28;20439;-71
2021/07/29 08:11:09;;;;;;;6.10;2.00;;;20.50;88.80;;;;;;5053282;28;20025;-71
2021/07/29 08:13:34;;;;;;;6.28;1.95;;;20.70;86.70;;;;;;5053372;28;20451;-71
2021/07/29 08:16:00;;;;;;;5.10;1.65;;;20.80;86.40;;;;;;5053455;28;20029;-72
2021/07/29 08:18:27;;;;;;;5.05;2.00;;;20.90;87.50;;;;;;5053076;28;20025;-73
2021/07/29 08:20:53;;;;;;;4.72;1.70;;;21.60;86.00;;;;;;5052331;28;20083;-71
2021/07/29 08:23:18;;;;;;;3.10;1.70;;;22.10;84.60;;;;;;5052926;28;20052;-72
2021/07/29 08:25:44;;;;;;;9.00;2.47;;;22.40;83.10;;;;;;5051913;28;20036;-73
2021/07/29 08:28:10;;;;;;;5.32;1.90;;;22.70;83.40;;;;;;5053174;28;20043;-71
2021/07/29 08:30:36;;;;;;;10.65;2.30;;;23.30;81.50;;;;;;5052917;28;20121;-72
2021/07/29 08:33:10;;;;;;;7.82;1.60;;;23.50;80.60;;;;;;5053361;28;20096;-73
2021/07/29 08:35:38;;;;;;;6.15;1.50;;;23.70;78.40;;;;;;5053055;28;20502;-73
2021/07/29 08:38:04;;;;;;;4.15;1.60;;;24.40;76.90;;;;;;5052977;28;20048;-73
2021/07/29 08:40:30;;;;;;;5.18;1.48;;;25.40;74.00;;;;;;5052821;28;20130;-72
2021/07/29 08:42:57;;;;;;;4.10;1.58;;;25.30;71.20;;;;;;5052621;28;20665;-73
2021/07/29 08:45:23;;;;;;;3.42;1.30;;;24.50;72.80;;;;;;5051574;28;20044;-73
2021/07/29 08:47:54;;;;;;;5.88;1.50;;;24.30;73.00;;;;;;5053125;28;20455;-74
2021/07/29 08:50:21;;;;;;;3.10;1.30;;;24.30;74.40;;;;;;5052756;28;20362;-72
2021/07/29 08:52:49;;;;;;;4.93;1.48;;;24.30;72.10;;;;;;5052704;28;20430;-73
2021/07/29 08:55:15;;;;;;;5.18;1.25;;;24.20;71.40;;;;;;5052629;28;20522;-72
2021/07/29 08:57:42;;;;;;;3.85;1.48;;;25.00;69.60;;;;;;5052525;28;20043;-73
2021/07/29 09:00:10;;;;;;;5.70;1.70;;;25.60;69.30;;;;;;5052665;28;20032;-73
2021/07/29 09:02:36;;;;;;;2.78;1.10;;;26.10;68.40;;;;;;5052673;28;20040;-73
2021/07/29 09:05:11;;;;;;;5.32;1.40;;;26.70;65.30;;;;;;5052500;28;20044;-73
2021/07/29 09:07:37;;;;;;;5.55;1.45;;;25.80;64.20;;;;;;5052290;28;20048;-72
2021/07/29 09:10:19;;;;;;;5.78;1.55;;;25.40;65.00;;;;;;5052316;28;20043;-73
2021/07/29 09:12:45;;;;;;;4.85;1.17;;;25.80;67.00;;;;;;5052388;28;20037;-72
2021/07/29 09:15:20;;;;;;;5.38;1.58;;;26.50;64.10;;;;;;5052196;28;20139;-73
2021/07/29 09:17:46;;;;;;;2.47;1.20;;;26.60;63.70;;;;;;5052538;28;20410;-72
2021/07/29 09:20:19;;;;;;;4.85;1.63;;;27.30;62.40;;;;;;5052092;28;20040;-72
2021/07/29 09:22:47;;;;;;;4.57;1.52;;;26.50;61.50;;;;;;5051229;28;20474;-72
2021/07/29 09:25:13;;;;;;;6.75;1.50;;;26.10;62.80;;;;;;5052339;28;20041;-72
2021/07/29 09:27:38;;;;;;;8.02;1.48;;;26.20;61.50;;;;;;5050923;28;20043;-73
2021/07/29 09:30:10;;;;;;;5.70;1.40;;;26.70;59.70;;;;;;5051290;28;20083;-73
2021/07/29 09:32:49;;;;;;;6.35;1.60;;;26.40;59.80;;;;;;5051967;28;20122;-73
2021/07/29 09:35:45;;;;;;;6.15;1.33;;;26.40;60.60;;;;;;5051698;28;20051;-73
2021/07/29 09:38:23;;;;;;;4.43;1.27;;;27.10;59.70;;;;;;5051724;28;20025;-74
2021/07/29 09:40:53;;;;;;;7.70;1.60;;;28.10;57.10;;;;;;5051705;28;20251;-73
2021/07/29 09:43:21;;;;;;;4.20;1.30;;;27.10;58.10;;;;;;5051724;28;20431;-72
2021/07/29 09:45:55;;;;;;;2.88;1.27;;;26.20;58.80;;;;;;5051564;28;20459;-72
2021/07/29 09:48:22;;;;;;;6.38;1.73;;;25.80;58.80;;;;;;5051524;28;20033;-71
2021/07/29 09:50:49;;;;;;;6.93;1.30;;;25.10;60.20;;;;;;5051992;28;20021;-71
2021/07/29 09:53:15;;;;;;;10.15;1.83;;;24.90;61.40;;;;;;5052002;28;20072;-72
2021/07/29 09:55:41;;;;;;;4.97;1.60;;;24.80;62.00;;;;;;5051716;28;20367;-72
2021/07/29 09:58:07;;;;;;;6.90;1.88;;;24.70;62.50;;;;;;5051458;28;20255;-71
2021/07/29 10:00:35;;;;;;;5.18;1.38;;;24.50;63.00;;;;;;5051472;28;20086;-72
2021/07/29 10:03:02;;;;;;;;;;;24.20;63.60;;;;;;5052053;28;20017;-72
2021/07/29 10:05:37;;;;;;;6.90;1.90;;;24.20;64.40;;;;;;5049909;28;19921;-71
2021/07/29 10:08:07;;;;;;;5.25;1.40;;;24.20;64.20;;;;;;5051341;28;20042;-74
2021/07/29 10:10:32;;;;;;;4.28;1.73;;;24.50;65.60;;;;;;5051169;28;20032;-73
2021/07/29 10:12:59;;;;;;;5.45;1.55;;;24.50;63.10;;;;;;5051053;28;20029;-71
2021/07/29 10:15:42;;;;;;;5.78;1.75;;;24.40;63.80;;;;;;5049565;28;20074;-73
2021/07/29 10:18:11;;;;;;;5.00;1.25;;;24.60;64.60;;;;;;5051157;28;20385;-71
2021/07/29 10:20:38;;;;;;;6.55;1.50;;;24.60;63.70;;;;;;5051532;28;20243;-71
2021/07/29 10:23:13;;;;;;;6.68;1.52;;;24.90;64.10;;;;;;5049973;28;20056;-73
2021/07/29 10:25:58;;;;;;;3.40;1.17;;;24.70;62.80;;;;;;5050933;28;20103;-72
2021/07/29 10:28:27;;;;;;;4.70;1.65;;;24.30;63.10;;;;;;5049685;28;20033;-72
2021/07/29 10:30:55;;;;;;;3.55;1.15;;;24.40;63.40;;;;;;5050841;28;20052;-72
2021/07/29 10:33:27;;;;;;;4.97;1.50;;;24.20;61.70;;;;;;5051048;28;20028;-71
2021/07/29 10:35:53;;;;;;;6.30;1.60;;;24.20;62.90;;;;;;5051109;28;20025;-71
2021/07/29 10:38:37;;;;;;;4.82;1.50;;;24.10;62.00;;;;;;5050821;28;20044;-72
2021/07/29 10:41:05;;;;;;;4.20;1.20;;;24.20;62.50;;;;;;5050793;28;20040;-71
2021/07/29 10:43:31;;;;;;;4.05;1.20;;;24.00;61.90;;;;;;5049913;28;20025;-72
2021/07/29 10:45:57;;;;;;;7.55;1.50;;;23.90;62.20;;;;;;5050729;28;20025;-71
2021/07/29 10:48:45;;;;;;;5.78;1.60;;;24.20;62.50;;;;;;5050516;28;20029;-71
2021/07/29 10:51:18;;;;;;;9.30;1.92;;;24.40;61.20;;;;;;5050501;28;20021;-71
2021/07/29 10:53:48;;;;;;;3.13;1.10;;;24.20;60.70;;;;;;5051052;28;20398;-71
2021/07/29 10:56:15;;;;;;;5.72;1.52;;;24.10;60.90;;;;;;5050476;28;20056;-71
2021/07/29 10:58:46;;;;;;;3.70;1.15;;;24.10;61.80;;;;;;5050508;28;20025;-72
2021/07/29 11:01:12;;;;;;;8.07;1.75;;;24.20;62.00;;;;;;5050580;28;20037;-71
2021/07/29 11:03:52;;;;;;;8.15;1.40;;;24.00;62.40;;;;;;5049528;28;20040;-72
2021/07/29 11:06:36;;;;;;;8.50;1.80;;;23.90;62.00;;;;;;5050565;28;20533;-72
2021/07/29 11:09:18;;;;;;;4.18;1.30;;;24.00;62.40;;;;;;5049749;28;20025;-71
2021/07/29 11:11:47;;;;;;;6.43;1.23;;;24.10;62.40;;;;;;5050446;28;20047;-71
2021/07/29 11:14:14;;;;;;;3.50;1.42;;;23.50;62.40;;;;;;5050363;28;20044;-71
2021/07/29 11:16:40;;;;;;;3.35;1.20;;;23.70;62.10;;;;;;5049441;28;20037;-73
2021/07/29 11:19:06;;;;;;;7.03;1.55;;;23.50;61.20;;;;;;5050558;28;20134;-73
2021/07/29 11:21:33;;;;;;;6.65;1.30;;;23.60;61.00;;;;;;5050099;28;20066;-72
2021/07/29 11:23:59;;;;;;;3.45;1.13;;;23.70;61.00;;;;;;5050940;28;20104;-73
2021/07/29 11:26:25;;;;;;;3.95;1.20;;;23.60;61.00;;;;;;5050476;28;20028;-72
2021/07/29 11:29:10;;;;;;;6.50;1.45;;;23.60;61.20;;;;;;5049901;28;20049;-73
2021/07/29 11:31:37;;;;;;;5.53;1.50;;;23.30;61.70;;;;;;5050047;28;20102;-71
2021/07/29 11:34:03;;;;;;;5.37;1.50;;;23.30;62.60;;;;;;5050053;28;20323;-72
2021/07/29 11:36:29;;;;;;;4.53;2.72;;;23.30;63.20;;;;;;5050176;28;20108;-72
2021/07/29 11:38:57;;;;;;;8.02;2.38;;;23.50;62.90;;;;;;5049450;28;20033;-72
2021/07/29 11:41:23;;;;;;;;;;;23.80;62.80;;;;;;5049576;28;20033;-73
2021/07/29 11:43:59;;;;;;;9.95;3.05;;;23.90;62.20;;;;;;5049798;28;20012;-72
2021/07/29 11:46:25;;;;;;;5.82;1.42;;;23.80;61.80;;;;;;5049822;28;20025;-73
2021/07/29 11:49:03;;;;;;;6.25;1.90;;;23.80;61.60;;;;;;5050350;28;20033;-71
2021/07/29 11:51:29;;;;;;;4.80;1.20;;;23.90;62.00;;;;;;5049528;28;20029;-72
2021/07/29 11:53:55;;;;;;;4.70;1.73;;;24.00;61.30;;;;;;5051295;28;20031;-71
2021/07/29 11:56:21;;;;;;;6.18;1.35;;;24.00;62.00;;;;;;5053557;28;20116;-70
2021/07/29 11:58:59;;;;;;;7.18;1.45;;;24.20;61.20;;;;;;5053656;28;20502;-72
2021/07/29 12:01:25;;;;;;;5.53;1.38;;;23.90;60.50;;;;;;5052100;28;20500;-73
2021/07/29 12:03:51;;;;;;;6.72;1.50;;;24.00;60.20;;;;;;5053442;28;20095;-71
2021/07/29 12:06:17;;;;;;;6.57;1.70;;;24.10;59.90;;;;;;5053500;28;20041;-73
2021/07/29 12:08:46;;;;;;;4.05;1.15;;;23.90;60.40;;;;;;5054008;28;20021;-72
2021/07/29 12:11:15;;;;;;;6.65;1.50;;;24.20;59.90;;;;;;5053429;28;20064;-71
2021/07/29 12:13:42;;;;;;;6.10;1.88;;;24.20;59.80;;;;;;5053390;28;20556;-71
2021/07/29 12:16:08;;;;;;;5.13;1.33;;;24.40;59.60;;;;;;5053920;28;20064;-71
2021/07/29 12:18:34;;;;;;;9.45;1.45;;;24.30;59.20;;;;;;5053445;28;20029;-73
2021/07/29 12:21:00;;;;;;;5.55;1.17;;;24.40;59.20;;;;;;5053585;28;20111;-71
2021/07/29 12:23:27;;;;;;;4.97;1.35;;;24.30;58.20;;;;;;5053227;28;20021;-71
2021/07/29 12:25:53;;;;;;;5.07;1.65;;;24.20;59.20;;;;;;5052185;28;20064;-71
2021/07/29 12:28:43;;;;;;;5.13;1.33;;;24.20;59.30;;;;;;5053099;28;20332;-71
2021/07/29 12:31:19;;;;;;;3.30;1.60;;;24.40;59.40;;;;;;5050011;28;20048;-71
2021/07/29 12:34:05;;;;;;;7.20;1.50;;;24.50;59.10;;;;;;5052994;28;20037;-71
2021/07/29 12:36:45;;;;;;;2.42;1.35;;;24.30;58.90;;;;;;5053040;28;20029;-72
2021/07/29 12:39:16;;;;;;;7.10;1.60;;;24.10;57.70;;;;;;5052866;28;20622;-72
2021/07/29 12:41:44;;;;;;;7.72;1.60;;;24.20;58.80;;;;;;5053136;28;20029;-71
2021/07/29 12:44:16;;;;;;;;;;;24.30;58.50;;;;;;5052020;28;20051;-71
2021/07/29 12:46:44;;;;;;;7.07;1.85;;;24.20;57.70;;;;;;5052783;28;19916;-70
2021/07/29 12:49:10;;;;;;;8.30;1.17;;;24.30;57.80;;;;;;5052897;28;20032;-70
2021/07/29 12:51:36;;;;;;;4.43;1.33;;;24.30;58.40;;;;;;5052811;28;20048;-73
2021/07/29 12:54:07;;;;;;;4.57;1.90;;;24.10;57.70;;;;;;5053045;28;20124;-71